Time;durP1;ratioP1;P1;durP2;ratioP2;P2;SDS_P1;SDS_P2;PMS_P1;PMS_P2;Temp;Humidity;BMP_temperature;BMP_pressure;BME280_temperature;BME280_humidity;BME280_pressure;Samples;Min_cycle;Max_cycle;Signal;HPM_P1;HPM_P2
2022/01/02 00:01:37;;;;;;;;;;;11.50;99.90;;;;;;5034190;28;19936;-41
2022/01/02 00:04:04;;;;;;;;;;;11.50;99.90;;;;;;5034385;28;20374;-40
2022/01/02 00:06:31;;;;;;;;;;;11.50;99.90;;;;;;5034234;28;19925;-41
2022/01/02 00:09:01;;;;;;;;;;;11.50;99.90;;;;;;5016640;28;19925;-40
2022/01/02 00:11:29;;;;;;;;;;;11.50;99.90;;;;;;5016485;28;20024;-41
2022/01/02 00:13:56;;;;;;;;;;;11.50;99.90;;;;;;5033983;28;19925;-40
2022/01/02 00:16:23;;;;;;;;;;;11.50;99.90;;;;;;5034256;28;19968;-41
2022/01/02 00:19:02;;;;;;;;;;;11.50;99.90;;;;;;5016456;28;20289;-40
2022/01/02 00:21:31;;;;;;;;;;;11.50;99.90;;;;;;5033393;28;20023;-40
2022/01/02 00:24:01;;;;;;;;;;;11.40;99.90;;;;;;5016124;28;19925;-40
2022/01/02 00:26:36;;;;;;;;;;;11.50;99.90;;;;;;5016350;28;20377;-40
2022/01/02 00:29:03;;;;;;;;;;;11.50;99.90;;;;;;5033994;28;20404;-40
2022/01/02 00:31:30;;;;;;;;;;;11.40;99.90;;;;;;5033686;28;19929;-40
2022/01/02 00:33:57;;;;;;;;;;;11.50;99.90;;;;;;5033561;28;19934;-41
2022/01/02 00:36:24;;;;;;;;;;;11.40;99.90;;;;;;5033682;28;20373;-40
2022/01/02 00:38:51;;;;;;;;;;;11.50;99.90;;;;;;5033342;28;19936;-40
2022/01/02 00:41:18;;;;;;;;;;;11.50;99.90;;;;;;5048233;28;19933;-42
2022/01/02 00:43:47;;;;;;;;;;;11.40;99.90;;;;;;5016727;28;19925;-42
2022/01/02 00:46:14;;;;;;;;;;;11.40;99.90;;;;;;5016106;28;19994;-41
2022/01/02 00:48:42;;;;;;;;;;;11.40;99.90;;;;;;5033652;28;20317;-42
2022/01/02 00:51:10;;;;;;;;;;;11.40;99.90;;;;;;5032048;28;19968;-42
2022/01/02 00:53:37;;;;;;;;;;;11.40;99.90;;;;;;5033562;28;19925;-42
2022/01/02 00:56:04;;;;;;;;;;;11.40;99.90;;;;;;5015782;28;19924;-42
2022/01/02 00:58:33;;;;;;;;;;;11.40;99.90;;;;;;5024859;28;20324;-42
2022/01/02 01:01:01;;;;;;;;;;;11.40;99.90;;;;;;5048672;28;19952;-41
2022/01/02 01:03:29;;;;;;;;;;;11.40;99.90;;;;;;5025062;28;19932;-41
2022/01/02 01:05:57;;;;;;;;;;;11.50;99.90;;;;;;5015637;28;19933;-41
2022/01/02 01:08:24;;;;;;;;;;;11.40;99.90;;;;;;5015687;28;19988;-42
2022/01/02 01:10:51;;;;;;;;;;;11.40;99.90;;;;;;5032810;28;20478;-41
2022/01/02 01:13:18;;;;;;;;;;;11.40;99.90;;;;;;5033175;28;19960;-41
2022/01/02 01:15:45;;;;;;;;;;;11.50;99.90;;;;;;5015841;28;19971;-41
2022/01/02 01:18:13;;;;;;;;;;;11.40;99.90;;;;;;5015582;28;19925;-41
2022/01/02 01:20:41;;;;;;;;;;;11.50;99.90;;;;;;5032473;28;19932;-41
2022/01/02 01:23:08;;;;;;;;;;;11.40;99.90;;;;;;5033176;28;19931;-43
2022/01/02 01:25:38;;;;;;;;;;;11.40;99.90;;;;;;5030615;28;20351;-41
2022/01/02 01:28:04;;;;;;;;;;;11.40;99.90;;;;;;5015114;28;20385;-41
2022/01/02 01:30:31;;;;;;;;;;;11.40;99.90;;;;;;5031839;28;19925;-41
2022/01/02 01:32:58;;;;;;;;;;;11.40;99.90;;;;;;5015220;28;19925;-41
2022/01/02 01:35:26;;;;;;;;;;;11.40;99.90;;;;;;5032604;28;20321;-41
2022/01/02 01:37:53;;;;;;;;;;;11.40;99.90;;;;;;5032820;28;19925;-41
2022/01/02 01:40:20;;;;;;;;;;;11.40;99.90;;;;;;5032797;28;19925;-41
2022/01/02 01:42:56;;;;;;;;;;;11.40;99.90;;;;;;5015045;28;19933;-41
2022/01/02 01:45:29;;;;;;;;;;;11.40;99.90;;;;;;5032063;28;20373;-42
2022/01/02 01:47:56;;;;;;;;;;;11.40;99.90;;;;;;5009400;28;19968;-42
2022/01/02 01:50:23;;;;;;;;;;;11.40;99.90;;;;;;5032239;28;19984;-42
2022/01/02 01:52:51;;;;;;;;;;;11.40;99.90;;;;;;5032589;28;19925;-41
2022/01/02 01:55:18;;;;;;;;;;;11.40;99.90;;;;;;5014407;28;20344;-41
2022/01/02 01:57:45;;;;;;;;;;;11.40;99.90;;;;;;5031848;28;19932;-42
2022/01/02 02:00:13;;;;;;;;;;;11.40;99.90;;;;;;5015247;28;19994;-42
2022/01/02 02:02:40;;;;;;;;;;;11.40;99.90;;;;;;5019349;28;19925;-42
2022/01/02 02:05:07;;;;;;;;;;;11.40;99.90;;;;;;5021141;28;20270;-42
2022/01/02 02:07:39;;;;;;;;;;;11.40;99.90;;;;;;5039019;28;20039;-42
2022/01/02 02:10:13;;;;;;;;;;;11.40;99.90;;;;;;5021489;28;20436;-43
2022/01/02 02:12:40;;;;;;;;;;;11.40;99.90;;;;;;5021542;28;19932;-43
2022/01/02 02:15:07;;;;;;;;;;;11.40;99.90;;;;;;5038703;28;20047;-43
2022/01/02 02:17:34;;;;;;;;;;;11.40;99.90;;;;;;5038450;28;20378;-43
2022/01/02 02:20:11;;;;;;;;;;;11.40;99.90;;;;;;5054292;28;20019;-43
2022/01/02 02:22:40;;;;;;;;;;;11.30;99.90;;;;;;5038191;28;19925;-43
2022/01/02 02:25:07;;;;;;;;;;;11.40;99.90;;;;;;5038777;28;19933;-44
2022/01/02 02:27:34;;;;;;;;;;;11.30;99.90;;;;;;5020783;28;20008;-43
2022/01/02 02:30:01;;;;;;;;;;;11.40;99.90;;;;;;5038936;28;19929;-43
2022/01/02 02:32:27;;;;;;;;;;;11.40;99.90;;;;;;5038892;28;19968;-42
2022/01/02 02:34:54;;;;;;;;;;;11.40;99.90;;;;;;5038442;28;20361;-41
2022/01/02 02:37:24;;;;;;;;;;;11.40;99.90;;;;;;5054451;28;20035;-41
2022/01/02 02:39:51;;;;;;;;;;;11.40;99.90;;;;;;5038771;28;19959;-41
2022/01/02 02:42:29;;;;;;;;;;;11.40;99.90;;;;;;5038373;28;19979;-41
2022/01/02 02:48:56;;;;;;;;;;;11.40;99.90;;;;;;5038375;28;19979;-44
2022/01/02 02:50:29;;;;;;;;;;;11.40;99.90;;;;;;5021071;28;20054;-42
2022/01/02 02:52:57;;;;;;;;;;;11.30;99.90;;;;;;5020588;28;19925;-42
2022/01/02 02:55:30;;;;;;;;;;;11.40;99.90;;;;;;5038548;28;20007;-44
2022/01/02 02:58:08;;;;;;;;;;;11.30;99.90;;;;;;5020466;28;20378;-43
2022/01/02 03:00:35;;;;;;;;;;;11.40;99.90;;;;;;5020948;28;20388;-43
2022/01/02 03:03:02;;;;;;;;;;;11.30;99.90;;;;;;5020453;28;19991;-42
2022/01/02 03:05:29;;;;;;;;;;;11.30;99.90;;;;;;5020697;28;20078;-43
2022/01/02 03:07:57;;;;;;;;;;;11.30;99.90;;;;;;5038547;28;19925;-43
2022/01/02 03:10:24;;;;;;;;;;;11.30;99.90;;;;;;5034460;28;20305;-43
2022/01/02 03:12:51;;;;;;;;;;;11.30;99.90;;;;;;5018646;28;19925;-42
2022/01/02 03:15:17;;;;;;;;;;;11.30;99.90;;;;;;5050634;28;19979;-43
2022/01/02 03:17:44;;;;;;;;;;;11.40;99.90;;;;;;5035113;28;19925;-42
2022/01/02 03:20:11;;;;;;;;;;;11.30;99.90;;;;;;5017502;28;19925;-43
2022/01/02 03:22:38;;;;;;;;;;;11.30;99.90;;;;;;5034769;28;20019;-44
2022/01/02 03:25:07;;;;;;;;;;;11.30;99.90;;;;;;5017693;28;20115;-44
2022/01/02 03:27:34;;;;;;;;;;;11.30;99.90;;;;;;5017175;28;20012;-43
2022/01/02 03:30:02;;;;;;;;;;;11.30;99.90;;;;;;5034755;28;19996;-42
2022/01/02 03:32:29;;;;;;;;;;;11.30;99.90;;;;;;5050382;28;19935;-43
2022/01/02 03:34:55;;;;;;;;;;;11.30;99.90;;;;;;5017253;28;19931;-44
2022/01/02 03:37:22;;;;;;;;;;;11.30;99.90;;;;;;5017698;28;19971;-44
2022/01/02 03:39:49;;;;;;;;;;;11.30;99.90;;;;;;5034568;28;19939;-43
2022/01/02 03:42:17;;;;;;;;;;;11.30;99.90;;;;;;5049949;28;19925;-43
2022/01/02 03:44:44;;;;;;;;;;;11.30;99.90;;;;;;5032803;28;20355;-43
2022/01/02 03:47:10;;;;;;;;;;;11.30;99.90;;;;;;5016995;28;19971;-43
2022/01/02 03:49:37;;;;;;;;;;;11.30;99.90;;;;;;5034758;28;19932;-42
2022/01/02 03:52:04;;;;;;;;;;;11.30;99.90;;;;;;5016795;28;20271;-43
2022/01/02 03:54:31;;;;;;;;;;;11.30;99.90;;;;;;5017209;28;20301;-44
2022/01/02 03:56:58;;;;;;;;;;;11.30;99.90;;;;;;5016854;28;19931;-43
2022/01/02 03:59:26;;;;;;;;;;;11.40;99.90;;;;;;5017114;28;20012;-43
2022/01/02 04:01:53;;;;;;;;;;;11.30;99.90;;;;;;5016255;28;19949;-44
2022/01/02 04:04:19;;;;;;;;;;;11.40;99.90;;;;;;5016589;28;19935;-44
2022/01/02 04:06:47;;;;;;;;;;;11.40;99.90;;;;;;5016306;28;20372;-43
2022/01/02 04:09:13;;;;;;;;;;;11.40;99.90;;;;;;5016826;28;20417;-42
2022/01/02 04:11:40;;;;;;;;;;;11.40;99.90;;;;;;5034158;28;19925;-41
2022/01/02 04:14:07;;;;;;;;;;;11.40;99.90;;;;;;5034699;28;20281;-42
2022/01/02 04:16:35;;;;;;;;;;;11.40;99.90;;;;;;5016779;28;19976;-41
2022/01/02 04:19:02;;;;;;;;;;;11.40;99.90;;;;;;5016308;28;20008;-42
2022/01/02 04:21:28;;;;;;;;;;;11.40;99.90;;;;;;5016056;28;19980;-41
2022/01/02 04:23:55;;;;;;;;;;;11.40;99.90;;;;;;5033973;28;19925;-40
2022/01/02 04:26:22;;;;;;;;;;;11.40;99.90;;;;;;5015294;28;19932;-41
2022/01/02 04:28:49;;;;;;;;;;;11.40;99.90;;;;;;5034052;28;20345;-41
2022/01/02 04:31:16;;;;;;;;;;;11.50;99.90;;;;;;5016174;28;19951;-41
2022/01/02 04:33:44;;;;;;;;;;;11.50;99.90;;;;;;5033280;28;19933;-41
2022/01/02 04:36:10;;;;;;;;;;;11.50;99.90;;;;;;5033557;28;19948;-41
2022/01/02 04:38:38;;;;;;;;;;;11.50;99.90;;;;;;5033594;28;20351;-41
2022/01/02 04:41:05;;;;;;;;;;;11.50;99.90;;;;;;5016460;28;20008;-41
2022/01/02 04:43:32;;;;;;;;;;;11.50;99.90;;;;;;5048945;28;20017;-41
2022/01/02 04:45:58;;;;;;;;;;;11.60;99.90;;;;;;5025319;28;20401;-41
2022/01/02 04:48:25;;;;;;;;;;;11.60;99.90;;;;;;5015308;28;19940;-41
2022/01/02 04:50:53;;;;;;;;;;;11.60;99.90;;;;;;5033248;28;19929;-42
2022/01/02 04:53:21;;;;;;;;;;;11.60;99.90;;;;;;5049202;28;19929;-41
2022/01/02 04:55:48;;;;;;;;;;;11.60;99.90;;;;;;5033548;28;19925;-41
2022/01/02 04:58:14;;;;;;;;;;;11.60;99.90;;;;;;5033666;28;20407;-41
2022/01/02 05:00:41;;;;;;;;;;;11.60;99.90;;;;;;5016243;28;20357;-43
2022/01/02 05:03:08;;;;;;;;;;;11.60;99.90;;;;;;5032751;28;19975;-42
2022/01/02 05:05:35;;;;;;;;;;;11.60;99.90;;;;;;5015265;28;19931;-41
2022/01/02 05:08:03;;;;;;;;;;;11.60;99.90;;;;;;5033219;28;19925;-41
2022/01/02 05:10:29;;;;;;;;;;;11.60;99.90;;;;;;5033210;28;19925;-41
2022/01/02 05:12:56;;;;;;;;;;;11.60;99.90;;;;;;5032462;28;19931;-41
2022/01/02 05:15:23;;;;;;;;;;;11.60;99.90;;;;;;5015703;28;20391;-41
2022/01/02 05:17:50;;;;;;;;;;;11.60;99.90;;;;;;5032581;28;20024;-41
2022/01/02 05:20:17;;;;;;;;;;;11.60;99.90;;;;;;5015812;28;19925;-41
2022/01/02 05:22:43;;;;;;;;;;;11.70;99.90;;;;;;5032408;28;19932;-40
2022/01/02 05:25:11;;;;;;;;;;;11.70;99.90;;;;;;5048854;28;20340;-41
2022/01/02 05:27:38;;;;;;;;;;;11.70;99.90;;;;;;5032713;28;19925;-41
2022/01/02 05:30:05;;;;;;;;;;;11.70;99.90;;;;;;5048271;28;19983;-41
2022/01/02 05:32:32;;;;;;;;;;;11.70;99.90;;;;;;5014750;28;19925;-42
2022/01/02 05:34:59;;;;;;;;;;;11.70;99.90;;;;;;5048419;28;20317;-41
2022/01/02 05:37:26;;;;;;;;;;;11.70;99.90;;;;;;5048091;28;19925;-41
2022/01/02 05:39:52;;;;;;;;;;;11.70;99.90;;;;;;5015096;28;19931;-41
2022/01/02 05:42:21;;;;;;;;;;;11.70;99.90;;;;;;5032098;28;19964;-41
2022/01/02 05:44:47;;;;;;;;;;;11.70;99.90;;;;;;5032320;28;19948;-41
2022/01/02 05:47:14;;;;;;;;;;;11.70;99.90;;;;;;5014952;28;20369;-42
2022/01/02 05:49:41;;;;;;;;;;;11.80;99.90;;;;;;5032569;28;19994;-41
2022/01/02 05:52:08;;;;;;;;;;;11.80;99.90;;;;;;5015499;28;20012;-41
2022/01/02 05:54:34;;;;;;;;;;;11.80;99.90;;;;;;5032877;28;19925;-41
2022/01/02 05:57:01;;;;;;;;;;;11.80;99.90;;;;;;5015191;28;19960;-41
2022/01/02 05:59:29;;;;;;;;;;;11.90;99.90;;;;;;5032223;28;20007;-41
2022/01/02 06:01:56;;;;;;;;;;;11.90;99.90;;;;;;5012817;28;19980;-41
2022/01/02 06:04:23;;;;;;;;;;;12.00;99.90;;;;;;5031756;28;20301;-41
2022/01/02 06:06:49;;;;;;;;;;;12.00;99.90;;;;;;5014986;28;19952;-41
2022/01/02 06:09:16;;;;;;;;;;;12.00;99.90;;;;;;5031995;28;19939;-42
2022/01/02 06:11:43;;;;;;;;;;;12.00;99.90;;;;;;5014896;28;19951;-42
2022/01/02 06:14:10;;;;;;;;;;;12.10;99.90;;;;;;5031716;28;19925;-43
2022/01/02 06:16:38;;;;;;;;;;;12.10;99.90;;;;;;5046891;28;19964;-42
2022/01/02 06:19:05;;;;;;;;;;;12.10;99.90;;;;;;5015343;28;19929;-42
2022/01/02 06:21:31;;;;;;;;;;;12.10;99.90;;;;;;5032161;28;19936;-44
2022/01/02 06:23:58;;;;;;;;;;;12.20;99.90;;;;;;5047721;28;19936;-43
2022/01/02 06:26:25;;;;;;;;;;;12.20;99.90;;;;;;5031558;28;19925;-43
2022/01/02 06:28:52;;;;;;;;;;;12.20;99.90;;;;;;5014499;28;20289;-43
2022/01/02 06:31:18;;;;;;;;;;;12.20;99.90;;;;;;5031234;28;20389;-43
2022/01/02 06:33:46;;;;;;;;;;;12.20;99.90;;;;;;5030920;28;20034;-43
2022/01/02 06:36:13;;;;;;;;;;;12.10;99.90;;;;;;5032309;28;19925;-42
2022/01/02 06:38:40;;;;;;;;;;;12.20;99.90;;;;;;5013991;28;19968;-43
2022/01/02 06:41:07;;;;;;;;;;;12.20;99.90;;;;;;5030806;28;19975;-42
2022/01/02 06:43:33;;;;;;;;;;;12.20;99.90;;;;;;5047259;28;20023;-43
2022/01/02 06:46:00;;;;;;;;;;;12.20;99.90;;;;;;5032002;28;20403;-42
2022/01/02 06:48:27;;;;;;;;;;;12.20;99.90;;;;;;5048792;28;19968;-43
2022/01/02 06:50:55;;;;;;;;;;;12.30;99.90;;;;;;5035485;28;19925;-43
2022/01/02 06:53:22;;;;;;;;;;;12.30;99.90;;;;;;5034926;28;19936;-43
2022/01/02 06:55:49;;;;;;;;;;;12.30;99.90;;;;;;5047059;28;19972;-43
2022/01/02 06:58:15;;;;;;;;;;;12.30;99.90;;;;;;5015333;28;20282;-43
2022/01/02 07:00:42;;;;;;;;;;;12.30;99.90;;;;;;5015501;28;19976;-42
2022/01/02 07:03:09;;;;;;;;;;;12.30;99.90;;;;;;5014224;28;20008;-42
2022/01/02 07:05:36;;;;;;;;;;;12.20;99.90;;;;;;5015464;28;19932;-41
2022/01/02 07:08:04;;;;;;;;;;;12.20;99.90;;;;;;5014424;28;19939;-41
2022/01/02 07:10:31;;;;;;;;;;;12.20;99.90;;;;;;5014459;28;20433;-41
2022/01/02 07:12:58;;;;;;;;;;;12.20;99.90;;;;;;5014496;28;19976;-44
2022/01/02 07:15:24;;;;;;;;;;;12.20;99.90;;;;;;5015629;28;19925;-43
2022/01/02 07:17:51;;;;;;;;;;;12.10;99.90;;;;;;5015624;28;19925;-43
2022/01/02 07:20:18;;;;;;;;;;;12.10;99.90;;;;;;5014009;28;20352;-42
2022/01/02 07:22:46;;;;;;;;;;;12.10;99.90;;;;;;5014941;28;19925;-43
2022/01/02 07:25:14;;;;;;;;;;;12.10;99.90;;;;;;5014015;28;19969;-42
2022/01/02 07:27:41;;;;;;;;;;;12.00;99.90;;;;;;5014886;28;20370;-42
2022/01/02 07:30:08;;;;;;;;;;;12.00;99.90;;;;;;5014810;28;20023;-43
2022/01/02 07:32:35;;;;;;;;;;;12.10;99.90;;;;;;5014342;28;20336;-42
2022/01/02 07:35:03;;;;;;;;;;;12.00;99.90;;;;;;5015608;28;19925;-43
2022/01/02 07:37:30;;;;;;;;;;;12.00;99.90;;;;;;5014097;28;19979;-44
2022/01/02 07:39:57;;;;;;;;;;;12.00;99.90;;;;;;5014385;28;19929;-43
2022/01/02 07:42:25;;;;;;;;;;;12.00;99.90;;;;;;5014531;28;20013;-44
2022/01/02 07:44:52;;;;;;;;;;;12.00;99.90;;;;;;5014980;28;19926;-43
2022/01/02 07:47:19;;;;;;;;;;;12.00;99.90;;;;;;5014239;28;19957;-43
2022/01/02 07:49:45;;;;;;;;;;;12.00;99.90;;;;;;5014835;28;20292;-43
2022/01/02 07:52:12;;;;;;;;;;;12.00;99.90;;;;;;5013947;28;19979;-42
2022/01/02 07:54:39;;;;;;;;;;;12.00;99.90;;;;;;5023648;28;19964;-43
2022/01/02 07:57:06;;;;;;;;;;;11.90;99.90;;;;;;5033870;28;19925;-42
2022/01/02 07:59:34;;;;;;;;;;;11.90;99.90;;;;;;5015565;28;19935;-41
2022/01/02 08:02:01;;;;;;;;;;;11.90;99.90;;;;;;5033762;28;19933;-41
2022/01/02 08:04:27;;;;;;;;;;;12.00;99.90;;;;;;5031471;28;19933;-40
2022/01/02 08:06:54;;;;;;;;;;;11.90;99.90;;;;;;5016178;28;19967;-41
2022/01/02 08:09:21;;;;;;;;;;;11.90;99.90;;;;;;5016498;28;19948;-42
2022/01/02 08:11:48;;;;;;;;;;;11.90;99.90;;;;;;5033478;28;19925;-42
2022/01/02 08:14:15;;;;;;;;;;;11.90;99.90;;;;;;5049855;28;19972;-41
2022/01/02 08:16:43;;;;;;;;;;;11.80;99.90;;;;;;5033625;28;20058;-41
2022/01/02 08:19:10;;;;;;;;;;;11.80;99.90;;;;;;5033931;28;19925;-42
2022/01/02 08:21:37;;;;;;;;;;;11.80;99.90;;;;;;5016408;28;19975;-41
2022/01/02 08:24:04;;;;;;;;;;;11.80;99.90;;;;;;5033159;28;19935;-41
2022/01/02 08:26:30;;;;;;;;;;;11.80;99.90;;;;;;5033606;28;20482;-43
2022/01/02 08:29:00;;;;;;;;;;;11.80;99.90;;;;;;5049486;28;19925;-41
2022/01/02 08:31:27;;;;;;;;;;;11.80;99.90;;;;;;5032792;28;19925;-41
2022/01/02 08:33:55;;;;;;;;;;;11.80;99.90;;;;;;5016254;28;20023;-41
2022/01/02 08:36:21;;;;;;;;;;;11.80;99.90;;;;;;5033801;28;19931;-41
2022/01/02 08:38:48;;;;;;;;;;;11.80;99.90;;;;;;5016061;28;20381;-41
2022/01/02 08:41:15;;;;;;;;;;;11.80;99.90;;;;;;5032914;28;20358;-41
2022/01/02 08:43:42;;;;;;;;;;;11.80;99.90;;;;;;5033007;28;20022;-41
2022/01/02 08:46:09;;;;;;;;;;;11.70;99.90;;;;;;5016081;28;19932;-41
2022/01/02 08:48:35;;;;;;;;;;;11.70;99.90;;;;;;5033515;28;19998;-41
2022/01/02 08:51:04;;;;;;;;;;;11.70;99.90;;;;;;5030922;28;20330;-41
2022/01/02 08:53:31;;;;;;;;;;;11.70;99.90;;;;;;5032377;28;19969;-41
2022/01/02 08:55:58;;;;;;;;;;;11.70;99.90;;;;;;5015301;28;20370;-41
2022/01/02 08:58:24;;;;;;;;;;;11.70;99.90;;;;;;5033265;28;20002;-41
2022/01/02 09:00:51;;;;;;;;;;;11.60;99.90;;;;;;5032467;28;19933;-43
2022/01/02 09:03:18;;;;;;;;;;;11.60;99.90;;;;;;5031297;28;19972;-43
2022/01/02 09:05:45;;;;;;;;;;;11.60;99.90;;;;;;5029997;28;20401;-42
2022/01/02 09:08:13;;;;;;;;;;;11.60;99.90;;;;;;5046304;28;19984;-43
2022/01/02 09:10:40;;;;;;;;;;;11.60;99.90;;;;;;5030934;28;19968;-41
2022/01/02 09:13:07;;;;;;;;;;;11.60;99.90;;;;;;5031708;28;20024;-42
2022/01/02 09:15:34;;;;;;;;;;;11.60;99.90;;;;;;5014649;28;20277;-42
2022/01/02 09:18:01;;;;;;;;;;;11.70;99.90;;;;;;5015125;28;19925;-42
2022/01/02 09:20:27;;;;;;;;;;;11.70;99.90;;;;;;5032007;28;20386;-43
2022/01/02 09:22:55;;;;;;;;;;;11.70;99.90;;;;;;5032491;28;19987;-42
2022/01/02 09:25:23;;;;;;;;;;;11.70;99.90;;;;;;5015178;28;19925;-44
2022/01/02 09:27:49;;;;;;;;;;;11.70;99.90;;;;;;5032248;28;19976;-43
2022/01/02 09:30:16;;;;;;;;;;;11.70;99.90;;;;;;5046628;28;19925;-44
2022/01/02 09:32:43;;;;;;;;;;;11.80;99.90;;;;;;5045007;28;19964;-43
2022/01/02 09:35:10;;;;;;;;;;;11.80;99.90;;;;;;5047406;28;19973;-43
2022/01/02 09:37:37;;;;;;;;;;;11.80;99.90;;;;;;5014765;28;19929;-44
2022/01/02 09:40:04;;;;;;;;;;;11.80;99.90;;;;;;5032324;28;19933;-43
2022/01/02 09:42:33;;;;;;;;;;;11.80;99.90;;;;;;5031291;28;19925;-44
2022/01/02 09:45:00;;;;;;;;;;;11.90;99.90;;;;;;5047352;28;20336;-45
2022/01/02 09:47:27;;;;;;;;;;;11.90;99.90;;;;;;5031884;28;20355;-44
2022/01/02 09:49:53;;;;;;;;;;;12.00;99.90;;;;;;5031955;28;19936;-47
2022/01/02 09:52:20;;;;;;;;;;;12.00;99.90;;;;;;5013620;28;19968;-43
2022/01/02 09:54:47;;;;;;;;;;;12.00;99.90;;;;;;5012809;28;20431;-44
2022/01/02 09:57:14;;;;;;;;;;;12.00;99.90;;;;;;5014531;28;20383;-44
2022/01/02 09:59:42;;;;;;;;;;;12.00;99.90;;;;;;5014495;28;20015;-44
2022/01/02 10:02:09;;;;;;;;;;;12.10;99.90;;;;;;5031274;28;19925;-45
2022/01/02 10:04:36;;;;;;;;;;;12.10;99.90;;;;;;5031649;28;19968;-44
2022/01/02 10:07:03;;;;;;;;;;;12.00;99.90;;;;;;5014392;28;19929;-43
2022/01/02 10:09:30;;;;;;;;;;;12.10;99.90;;;;;;5031923;28;19935;-44
2022/01/02 10:11:58;;;;;;;;;;;12.00;99.90;;;;;;5014232;28;19925;-43
2022/01/02 10:14:25;;;;;;;;;;;12.00;99.90;;;;;;5031591;28;19925;-43
2022/01/02 10:16:53;;;;;;;;;;;12.10;99.90;;;;;;5032054;28;19925;-44
2022/01/02 10:19:20;;;;;;;;;;;12.10;99.90;;;;;;5013945;28;20400;-44
2022/01/02 10:21:53;;;;;;;;;;;12.00;99.90;;;;;;5010518;28;19925;-45
2022/01/02 10:24:21;;;;;;;;;;;12.00;99.90;;;;;;5032879;28;19971;-44
2022/01/02 10:27:08;;;;;;;;;;;12.00;99.90;;;;;;5014085;28;20024;-43
2022/01/02 10:29:50;;;;;;;;;;;12.00;99.90;;;;;;5031883;28;19972;-45
2022/01/02 10:32:28;;;;;;;;;;;12.00;99.90;;;;;;5027260;28;19925;-44
2022/01/02 10:35:06;;;;;;;;;;;12.00;99.90;;;;;;5032755;28;19925;-45
2022/01/02 10:37:33;;;;;;;;;;;12.00;99.90;;;;;;5010972;28;19925;-44
2022/01/02 10:40:00;;;;;;;;;;;12.00;99.90;;;;;;5015469;28;19952;-46
2022/01/02 10:42:27;;;;;;;;;;;12.00;99.90;;;;;;5032352;28;19925;-46
2022/01/02 10:44:54;;;;;;;;;;;12.00;99.90;;;;;;5033874;28;19984;-45
2022/01/02 10:47:21;;;;;;;;;;;12.10;99.90;;;;;;5012953;28;19976;-45
2022/01/02 10:49:50;;;;;;;;;;;12.10;99.90;;;;;;5014954;28;19926;-43
2022/01/02 10:52:18;;;;;;;;;;;12.10;99.90;;;;;;5019490;28;19933;-44
2022/01/02 10:54:45;;;;;;;;;;;12.10;99.90;;;;;;5034920;28;20657;-43
2022/01/02 10:57:12;;;;;;;;;;;12.20;99.90;;;;;;5033682;28;19925;-46
2022/01/02 10:59:39;;;;;;;;;;;12.20;99.90;;;;;;5039695;28;19925;-44
2022/01/02 11:02:06;;;;;;;;;;;12.20;99.90;;;;;;5035317;28;19925;-44
2022/01/02 11:04:33;;;;;;;;;;;12.20;99.90;;;;;;5017257;28;19968;-43
2022/01/02 11:07:01;;;;;;;;;;;12.20;99.90;;;;;;5033961;28;19977;-44
2022/01/02 11:09:28;;;;;;;;;;;12.20;99.90;;;;;;5035225;28;19979;-44
2022/01/02 11:11:54;;;;;;;;;;;12.20;99.90;;;;;;5032959;28;19935;-45
2022/01/02 11:14:21;;;;;;;;;;;12.20;99.90;;;;;;5016659;28;19929;-44
2022/01/02 11:16:48;;;;;;;;;;;12.10;99.90;;;;;;5034704;28;20004;-43
2022/01/02 11:19:15;;;;;;;;;;;12.10;99.90;;;;;;5034162;28;19929;-44
2022/01/02 11:21:42;;;;;;;;;;;12.10;99.90;;;;;;5038372;28;19925;-44
2022/01/02 11:24:11;;;;;;;;;;;12.10;99.90;;;;;;5033420;28;19931;-44
2022/01/02 11:26:38;;;;;;;;;;;12.10;99.90;;;;;;5031181;28;20007;-45
2022/01/02 11:29:05;;;;;;;;;;;12.10;99.90;;;;;;5013352;28;20024;-45
2022/01/02 11:31:32;;;;;;;;;;;12.00;99.90;;;;;;5030307;28;19925;-43
2022/01/02 11:33:58;;;;;;;;;;;12.00;99.90;;;;;;5033268;28;19933;-43
2022/01/02 11:36:26;;;;;;;;;;;12.00;99.90;;;;;;5019654;28;19977;-44
2022/01/02 11:39:03;;;;;;;;;;;12.00;99.90;;;;;;5030893;28;19925;-44
2022/01/02 11:41:41;;;;;;;;;;;12.00;99.90;;;;;;5008641;28;20408;-45
2022/01/02 11:44:09;;;;;;;;;;;12.00;99.90;;;;;;5039588;28;19925;-43
2022/01/02 11:46:46;;;;;;;;;;;12.00;99.90;;;;;;5018414;28;19924;-45
2022/01/02 11:49:20;;;;;;;;;;;12.00;99.90;;;;;;5063640;28;20377;-45
2022/01/02 11:52:00;;;;;;;;;;;12.00;99.90;;;;;;5030654;28;19978;-44
2022/01/02 11:54:46;;;;;;;;;;;12.00;99.90;;;;;;5043221;28;20377;-47
2022/01/02 11:57:31;;;;;;;;;;;12.00;99.90;;;;;;5035376;28;19925;-44
2022/01/02 11:59:59;;;;;;;;;;;12.00;99.90;;;;;;5036487;28;19925;-44
2022/01/02 12:02:34;;;;;;;;;;;12.00;99.90;;;;;;5014474;28;20430;-45
2022/01/02 12:05:12;;;;;;;;;;;12.00;99.90;;;;;;5012376;28;19975;-45
2022/01/02 12:07:53;;;;;;;;;;;12.00;99.90;;;;;;5048977;28;19925;-44
2022/01/02 12:10:20;;;;;;;;;;;12.00;99.90;;;;;;5024227;28;20232;-44
2022/01/02 12:13:10;;;;;;;;;;;12.00;99.90;;;;;;5016573;28;19940;-44
2022/01/02 12:15:57;;;;;;;;;;;12.00;99.90;;;;;;5023402;28;20402;-43
2022/01/02 12:18:26;;;;;;;;;;;12.00;99.90;;;;;;5020748;28;19929;-44
2022/01/02 12:21:09;;;;;;;;;;;12.00;99.90;;;;;;5036730;28;19929;-44
2022/01/02 12:23:54;;;;;;;;;;;12.00;99.90;;;;;;5036833;28;19980;-44
2022/01/02 12:26:22;;;;;;;;;;;12.00;99.90;;;;;;5015201;28;19940;-44
2022/01/02 12:28:56;;;;;;;;;;;12.00;99.90;;;;;;5015592;28;19987;-46
2022/01/02 12:31:23;;;;;;;;;;;12.00;99.90;;;;;;5016182;28;19925;-45
2022/01/02 12:33:51;;;;;;;;;;;12.10;99.90;;;;;;5019417;28;20016;-44
2022/01/02 12:36:19;;;;;;;;;;;12.00;99.90;;;;;;5033159;28;19932;-44
2022/01/02 12:38:46;;;;;;;;;;;12.00;99.90;;;;;;5046636;28;19925;-45
2022/01/02 12:41:13;;;;;;;;;;;12.10;99.90;;;;;;5033286;28;19968;-44
2022/01/02 12:43:41;;;;;;;;;;;12.00;99.90;;;;;;5033001;28;19925;-43
2022/01/02 12:46:08;;;;;;;;;;;12.00;99.90;;;;;;5042534;28;19925;-44
2022/01/02 12:48:35;;;;;;;;;;;12.00;99.90;;;;;;5019345;28;19975;-44
2022/01/02 12:51:10;;;;;;;;;;;12.00;99.90;;;;;;5041114;28;19932;-44
2022/01/02 12:53:37;;;;;;;;;;;12.10;99.90;;;;;;5023032;28;19968;-43
2022/01/02 12:56:03;;;;;;;;;;;12.10;99.90;;;;;;5032454;28;19971;-44
2022/01/02 12:58:31;;;;;;;;;;;12.10;99.90;;;;;;5032523;28;20302;-44
2022/01/02 13:01:02;;;;;;;;;;;12.10;99.90;;;;;;5015851;28;19925;-44
2022/01/02 13:03:29;;;;;;;;;;;12.20;99.90;;;;;;5021822;28;19974;-45
2022/01/02 13:05:56;;;;;;;;;;;12.10;99.90;;;;;;5021656;28;19924;-44
2022/01/02 13:08:24;;;;;;;;;;;12.00;99.90;;;;;;5033796;28;20025;-44
2022/01/02 13:10:51;;;;;;;;;;;12.00;99.90;;;;;;5038312;28;19983;-44
2022/01/02 13:13:27;;;;;;;;;;;12.00;99.90;;;;;;5035488;28;20075;-45
2022/01/02 13:15:53;;;;;;;;;;;12.00;99.90;;;;;;5041668;28;19928;-44
2022/01/02 13:18:20;;;;;;;;;;;11.90;99.90;;;;;;5032512;28;19932;-43
2022/01/02 13:20:48;;;;;;;;;;;11.90;99.90;;;;;;5020236;28;20398;-44
2022/01/02 13:23:14;;;;;;;;;;;11.90;99.90;;;;;;5035151;28;19932;-43
2022/01/02 13:25:44;;;;;;;;;;;11.90;99.90;;;;;;5040620;28;19924;-44
2022/01/02 13:28:12;;;;;;;;;;;11.90;99.90;;;;;;5016165;28;19925;-44
2022/01/02 13:30:39;;;;;;;;;;;11.80;99.90;;;;;;5051047;28;19987;-45
2022/01/02 13:33:15;;;;;;;;;;;11.80;99.90;;;;;;5034121;28;20292;-44
2022/01/02 13:35:42;;;;;;;;;;;11.80;99.90;;;;;;5038162;28;19924;-44
2022/01/02 13:38:11;;;;;;;;;;;11.70;99.90;;;;;;5032758;28;19979;-44
2022/01/02 13:40:38;;;;;;;;;;;11.70;99.90;;;;;;5017902;28;19925;-44
2022/01/02 13:43:10;;;;;;;;;;;11.70;99.90;;;;;;5014778;28;19929;-44
2022/01/02 13:45:39;;;;;;;;;;;11.60;99.90;;;;;;5014525;28;19936;-44
2022/01/02 13:48:10;;;;;;;;;;;11.60;99.90;;;;;;5031815;28;19968;-43
2022/01/02 13:50:37;;;;;;;;;;;11.60;99.90;;;;;;5032637;28;20003;-44
2022/01/02 13:53:04;;;;;;;;;;;11.50;99.90;;;;;;5031978;28;19925;-44
2022/01/02 13:55:32;;;;;;;;;;;11.50;99.90;;;;;;5025686;28;19925;-44
2022/01/02 13:57:59;;;;;;;;;;;11.50;99.90;;;;;;5025626;28;19933;-43
2022/01/02 14:00:28;;;;;;;;;;;11.40;99.90;;;;;;5014883;28;20381;-43
2022/01/02 14:02:55;;;;;;;;;;;11.40;99.90;;;;;;5032558;28;20611;-45
2022/01/02 14:05:22;;;;;;;;;;;11.40;99.90;;;;;;5016720;28;20029;-45
2022/01/02 14:07:48;;;;;;;;;;;11.40;99.90;;;;;;5033106;28;19929;-43
2022/01/02 14:10:15;;;;;;;;;;;11.40;99.90;;;;;;5014046;28;19933;-44
2022/01/02 14:12:42;;;;;;;;;;;11.40;99.90;;;;;;5013951;28;19925;-44
2022/01/02 14:15:16;;;;;;;;;;;11.30;99.90;;;;;;5032953;28;19925;-45
2022/01/02 14:17:48;;;;;;;;;;;11.30;99.90;;;;;;5030036;28;20388;-45
2022/01/02 14:20:15;;;;;;;;;;;11.30;99.90;;;;;;5026068;28;19975;-47
2022/01/02 14:22:42;;;;;;;;;;;11.30;99.90;;;;;;5021874;28;19933;-43
2022/01/02 14:25:09;;;;;;;;;;;11.30;99.90;;;;;;5024612;28;19977;-45